sensor_id;sensor_type;location;lat;lon;timestamp;pressure;altitude;pressure_sealevel;temperature;humidity
30856;BME280;17570;0.000;0.000;2023-10-13T00:00:29;97438.92;;;20.71;38.98
30856;BME280;17570;0.000;0.000;2023-10-13T00:02:59;97438.25;;;20.69;38.87
30856;BME280;17570;0.000;0.000;2023-10-13T00:05:32;97431.34;;;20.68;38.87
30856;BME280;17570;0.000;0.000;2023-10-13T00:08:01;97428.70;;;20.68;38.79
30856;BME280;17570;0.000;0.000;2023-10-13T00:10:29;97428.05;;;20.66;38.79
30856;BME280;17570;0.000;0.000;2023-10-13T00:12:57;97431.87;;;20.63;38.71
30856;BME280;17570;0.000;0.000;2023-10-13T00:15:42;97423.28;;;20.61;38.73
30856;BME280;17570;0.000;0.000;2023-10-13T00:18:15;97422.23;;;20.47;38.93
30856;BME280;17570;0.000;0.000;2023-10-13T00:20:44;97417.78;;;20.48;38.89
30856;BME280;17570;0.000;0.000;2023-10-13T00:23:16;97407.69;;;20.51;38.78
30856;BME280;17570;0.000;0.000;2023-10-13T00:25:47;97412.51;;;20.48;38.67
30856;BME280;17570;0.000;0.000;2023-10-13T00:28:16;97408.36;;;20.45;38.61
30856;BME280;17570;0.000;0.000;2023-10-13T00:30:50;97403.60;;;20.41;38.73
30856;BME280;17570;0.000;0.000;2023-10-13T00:33:19;97404.78;;;20.38;38.68
30856;BME280;17570;0.000;0.000;2023-10-13T00:35:49;97405.75;;;20.37;38.70
30856;BME280;17570;0.000;0.000;2023-10-13T00:38:18;97406.75;;;20.36;38.74
30856;BME280;17570;0.000;0.000;2023-10-13T00:40:46;97400.18;;;20.32;38.82
30856;BME280;17570;0.000;0.000;2023-10-13T00:43:21;97398.36;;;20.32;38.86
30856;BME280;17570;0.000;0.000;2023-10-13T00:45:57;97396.09;;;20.29;38.95
30856;BME280;17570;0.000;0.000;2023-10-13T00:48:34;97402.52;;;20.27;39.12
30856;BME280;17570;0.000;0.000;2023-10-13T00:51:02;97389.22;;;20.20;39.18
30856;BME280;17570;0.000;0.000;2023-10-13T00:53:30;97384.94;;;20.19;39.11
30856;BME280;17570;0.000;0.000;2023-10-13T00:56:01;97382.13;;;20.21;39.05
30856;BME280;17570;0.000;0.000;2023-10-13T00:58:33;97389.36;;;20.19;39.12
30856;BME280;17570;0.000;0.000;2023-10-13T01:01:01;97391.36;;;20.17;38.97
30856;BME280;17570;0.000;0.000;2023-10-13T01:03:45;97395.64;;;20.18;39.00
30856;BME280;17570;0.000;0.000;2023-10-13T01:06:15;97387.30;;;20.06;39.33
30856;BME280;17570;0.000;0.000;2023-10-13T01:08:49;97390.39;;;20.09;39.40
30856;BME280;17570;0.000;0.000;2023-10-13T01:11:18;97386.13;;;20.08;39.34
30856;BME280;17570;0.000;0.000;2023-10-13T01:13:45;97393.72;;;20.03;39.55
30856;BME280;17570;0.000;0.000;2023-10-13T01:16:15;97393.09;;;20.01;39.43
30856;BME280;17570;0.000;0.000;2023-10-13T01:18:43;97396.53;;;20.02;39.61
30856;BME280;17570;0.000;0.000;2023-10-13T01:21:17;97393.09;;;20.01;39.53
30856;BME280;17570;0.000;0.000;2023-10-13T01:23:46;97383.88;;;19.97;39.59
30856;BME280;17570;0.000;0.000;2023-10-13T01:26:15;97392.42;;;19.99;39.57
30856;BME280;17570;0.000;0.000;2023-10-13T01:28:44;97391.78;;;19.97;39.39
30856;BME280;17570;0.000;0.000;2023-10-13T01:31:13;97391.11;;;19.95;39.40
30856;BME280;17570;0.000;0.000;2023-10-13T01:33:42;97396.38;;;19.95;39.45
30856;BME280;17570;0.000;0.000;2023-10-13T01:36:09;97395.92;;;19.92;39.42
30856;BME280;17570;0.000;0.000;2023-10-13T01:38:38;97403.01;;;19.91;39.34
30856;BME280;17570;0.000;0.000;2023-10-13T01:41:07;97403.98;;;19.90;39.30
30856;BME280;17570;0.000;0.000;2023-10-13T01:43:35;97398.25;;;19.86;39.38
30856;BME280;17570;0.000;0.000;2023-10-13T01:46:03;97404.66;;;19.84;39.50
30856;BME280;17570;0.000;0.000;2023-10-13T01:48:30;97406.30;;;19.85;39.37
30856;BME280;17570;0.000;0.000;2023-10-13T01:51:02;97404.66;;;19.84;39.45
30856;BME280;17570;0.000;0.000;2023-10-13T01:53:31;97405.81;;;19.81;39.39
30856;BME280;17570;0.000;0.000;2023-10-13T01:55:59;97407.80;;;19.79;39.51
30856;BME280;17570;0.000;0.000;2023-10-13T01:58:28;97398.41;;;19.77;39.20
30856;BME280;17570;0.000;0.000;2023-10-13T02:00:56;97408.31;;;19.75;39.31
30856;BME280;17570;0.000;0.000;2023-10-13T02:03:25;97409.30;;;19.74;39.19
30856;BME280;17570;0.000;0.000;2023-10-13T02:05:54;97407.00;;;19.71;39.30
30856;BME280;17570;0.000;0.000;2023-10-13T02:08:23;97404.55;;;19.69;39.29
30856;BME280;17570;0.000;0.000;2023-10-13T02:10:51;97410.81;;;19.68;39.39
30856;BME280;17570;0.000;0.000;2023-10-13T02:13:20;97413.77;;;19.65;39.28
30856;BME280;17570;0.000;0.000;2023-10-13T02:15:49;97401.74;;;19.62;39.09
30856;BME280;17570;0.000;0.000;2023-10-13T02:18:19;97406.38;;;19.60;39.16
30856;BME280;17570;0.000;0.000;2023-10-13T02:20:48;97399.76;;;19.56;39.29
30856;BME280;17570;0.000;0.000;2023-10-13T02:23:18;97405.20;;;19.55;39.27
30856;BME280;17570;0.000;0.000;2023-10-13T02:25:47;97407.16;;;19.53;39.35
30856;BME280;17570;0.000;0.000;2023-10-13T02:28:14;97413.42;;;19.52;39.28
30856;BME280;17570;0.000;0.000;2023-10-13T02:30:43;97398.45;;;19.52;39.24
30856;BME280;17570;0.000;0.000;2023-10-13T02:33:12;97397.13;;;19.48;39.21
30856;BME280;17570;0.000;0.000;2023-10-13T02:35:40;97389.23;;;19.48;39.31
30856;BME280;17570;0.000;0.000;2023-10-13T02:38:12;97395.50;;;19.47;39.09
30856;BME280;17570;0.000;0.000;2023-10-13T02:40:40;97398.62;;;19.43;39.14
30856;BME280;17570;0.000;0.000;2023-10-13T02:43:08;97387.28;;;19.42;39.13
30856;BME280;17570;0.000;0.000;2023-10-13T02:45:37;97388.28;;;19.41;39.23
30856;BME280;17570;0.000;0.000;2023-10-13T02:48:04;97392.87;;;19.39;39.22
30856;BME280;17570;0.000;0.000;2023-10-13T02:50:43;97390.41;;;19.37;39.23
30856;BME280;17570;0.000;0.000;2023-10-13T02:53:12;97383.69;;;19.27;39.42
30856;BME280;17570;0.000;0.000;2023-10-13T02:55:52;97385.97;;;19.30;39.49
30856;BME280;17570;0.000;0.000;2023-10-13T02:58:19;97387.63;;;19.31;39.29
30856;BME280;17570;0.000;0.000;2023-10-13T03:00:47;97384.33;;;19.21;39.49
30856;BME280;17570;0.000;0.000;2023-10-13T03:03:15;97391.27;;;19.22;39.57
30856;BME280;17570;0.000;0.000;2023-10-13T03:05:44;97389.45;;;19.22;39.53
30856;BME280;17570;0.000;0.000;2023-10-13T03:08:12;97388.63;;;19.22;39.49
30856;BME280;17570;0.000;0.000;2023-10-13T03:10:41;97395.85;;;19.20;39.47
30856;BME280;17570;0.000;0.000;2023-10-13T03:13:10;97392.89;;;19.15;39.53
30856;BME280;17570;0.000;0.000;2023-10-13T03:15:38;97392.58;;;19.18;39.61
30856;BME280;17570;0.000;0.000;2023-10-13T03:18:05;97395.21;;;19.18;39.63
30856;BME280;17570;0.000;0.000;2023-10-13T03:20:33;97397.84;;;19.18;39.58
30856;BME280;17570;0.000;0.000;2023-10-13T03:23:02;97399.80;;;19.16;39.69
30856;BME280;17570;0.000;0.000;2023-10-13T03:25:31;97405.88;;;19.16;39.66
30856;BME280;17570;0.000;0.000;2023-10-13T03:28:00;97400.97;;;19.13;39.78
30856;BME280;17570;0.000;0.000;2023-10-13T03:30:28;97407.37;;;19.10;39.86
30856;BME280;17570;0.000;0.000;2023-10-13T03:33:03;97411.81;;;19.10;39.71
30856;BME280;17570;0.000;0.000;2023-10-13T03:35:36;97415.93;;;19.04;39.86
30856;BME280;17570;0.000;0.000;2023-10-13T03:38:11;97411.66;;;19.03;39.93
30856;BME280;17570;0.000;0.000;2023-10-13T03:40:45;97410.98;;;19.01;39.86
30856;BME280;17570;0.000;0.000;2023-10-13T03:43:16;97407.84;;;18.98;39.87
30856;BME280;17570;0.000;0.000;2023-10-13T03:45:45;97414.92;;;18.97;39.91
30856;BME280;17570;0.000;0.000;2023-10-13T03:48:17;97413.96;;;18.98;39.82
30856;BME280;17570;0.000;0.000;2023-10-13T03:50:54;97408.02;;;18.96;39.78
30856;BME280;17570;0.000;0.000;2023-10-13T03:53:29;97414.94;;;18.89;39.94
30856;BME280;17570;0.000;0.000;2023-10-13T03:55:59;97405.72;;;18.85;39.97
30856;BME280;17570;0.000;0.000;2023-10-13T03:58:41;97405.55;;;18.86;40.04
30856;BME280;17570;0.000;0.000;2023-10-13T04:01:11;97402.77;;;18.80;40.16
30856;BME280;17570;0.000;0.000;2023-10-13T04:03:40;97395.05;;;19.03;40.92
30856;BME280;17570;0.000;0.000;2023-10-13T04:06:09;97392.58;;;19.18;41.16
30856;BME280;17570;0.000;0.000;2023-10-13T04:08:39;97385.65;;;19.33;41.91
30856;BME280;17570;0.000;0.000;2023-10-13T04:11:11;97385.33;;;19.36;42.00
30856;BME280;17570;0.000;0.000;2023-10-13T04:13:56;97382.84;;;19.34;41.97
30856;BME280;17570;0.000;0.000;2023-10-13T04:16:32;97385.00;;;19.15;41.86
30856;BME280;17570;0.000;0.000;2023-10-13T04:19:02;97391.58;;;19.10;41.49
30856;BME280;17570;0.000;0.000;2023-10-13T04:21:31;97382.86;;;19.10;41.09
30856;BME280;17570;0.000;0.000;2023-10-13T04:24:12;97374.16;;;19.09;40.90
30856;BME280;17570;0.000;0.000;2023-10-13T04:26:51;97380.73;;;19.05;40.84
30856;BME280;17570;0.000;0.000;2023-10-13T04:29:37;97385.98;;;18.97;40.78
30856;BME280;17570;0.000;0.000;2023-10-13T04:32:25;97379.25;;;18.86;41.14
30856;BME280;17570;0.000;0.000;2023-10-13T04:34:58;97380.73;;;18.81;41.09
30856;BME280;17570;0.000;0.000;2023-10-13T04:37:27;97381.06;;;18.86;40.89
30856;BME280;17570;0.000;0.000;2023-10-13T04:40:00;97381.06;;;18.86;40.81
30856;BME280;17570;0.000;0.000;2023-10-13T04:42:30;97379.42;;;18.85;40.77
30856;BME280;17570;0.000;0.000;2023-10-13T04:45:02;97377.61;;;18.85;40.72
30856;BME280;17570;0.000;0.000;2023-10-13T04:47:31;97379.42;;;18.85;40.77
30856;BME280;17570;0.000;0.000;2023-10-13T04:50:01;97380.41;;;18.84;40.74
30856;BME280;17570;0.000;0.000;2023-10-13T04:52:30;97382.55;;;18.80;40.72
30856;BME280;17570;0.000;0.000;2023-10-13T04:55:16;97391.42;;;18.79;40.74
30856;BME280;17570;0.000;0.000;2023-10-13T04:57:45;97407.47;;;18.68;41.13
30856;BME280;17570;0.000;0.000;2023-10-13T05:00:14;97398.48;;;18.71;41.14
30856;BME280;17570;0.000;0.000;2023-10-13T05:02:46;97400.77;;;18.74;41.25
30856;BME280;17570;0.000;0.000;2023-10-13T05:05:28;97416.23;;;18.77;41.28
30856;BME280;17570;0.000;0.000;2023-10-13T05:08:01;97424.80;;;18.95;42.23
30856;BME280;17570;0.000;0.000;2023-10-13T05:10:46;97419.70;;;19.02;42.38
30856;BME280;17570;0.000;0.000;2023-10-13T05:13:32;97427.43;;;18.95;42.40
30856;BME280;17570;0.000;0.000;2023-10-13T05:16:17;97427.10;;;18.90;42.27
30856;BME280;17570;0.000;0.000;2023-10-13T05:19:03;97432.03;;;18.85;42.29
30856;BME280;17570;0.000;0.000;2023-10-13T05:21:49;97432.52;;;18.80;42.27
30856;BME280;17570;0.000;0.000;2023-10-13T05:24:35;97437.09;;;18.78;42.25
30856;BME280;17570;0.000;0.000;2023-10-13T05:27:20;97446.66;;;18.79;42.21
30856;BME280;17570;0.000;0.000;2023-10-13T05:30:06;97447.78;;;18.77;42.27
30856;BME280;17570;0.000;0.000;2023-10-13T05:32:52;97451.72;;;18.73;42.27
30856;BME280;17570;0.000;0.000;2023-10-13T05:35:38;97449.91;;;18.73;42.25
30856;BME280;17570;0.000;0.000;2023-10-13T05:38:23;97457.31;;;18.78;42.25
30856;BME280;17570;0.000;0.000;2023-10-13T05:41:09;97452.40;;;18.75;42.42
30856;BME280;17570;0.000;0.000;2023-10-13T05:43:54;97462.06;;;18.74;42.65
30856;BME280;17570;0.000;0.000;2023-10-13T05:46:40;97459.44;;;18.74;42.89
30856;BME280;17570;0.000;0.000;2023-10-13T05:49:19;97471.45;;;18.77;42.93
30856;BME280;17570;0.000;0.000;2023-10-13T05:51:48;97468.34;;;18.81;43.00
30856;BME280;17570;0.000;0.000;2023-10-13T05:54:26;97473.45;;;18.91;42.95
30856;BME280;17570;0.000;0.000;2023-10-13T05:57:12;97477.73;;;18.92;43.20
30856;BME280;17570;0.000;0.000;2023-10-13T05:59:57;97489.41;;;18.90;43.59
30856;BME280;17570;0.000;0.000;2023-10-13T06:02:43;97485.96;;;18.89;43.74
30856;BME280;17570;0.000;0.000;2023-10-13T06:05:28;97483.33;;;18.89;43.86
30856;BME280;17570;0.000;0.000;2023-10-13T06:08:14;97489.92;;;18.93;44.06
30856;BME280;17570;0.000;0.000;2023-10-13T06:11:03;97481.20;;;19.01;44.09
30856;BME280;17570;0.000;0.000;2023-10-13T06:13:48;97478.08;;;19.05;44.18
30856;BME280;17570;0.000;0.000;2023-10-13T06:16:34;97490.42;;;19.05;44.43
30856;BME280;17570;0.000;0.000;2023-10-13T06:19:15;97490.58;;;19.11;44.56
30856;BME280;17570;0.000;0.000;2023-10-13T06:22:00;97487.47;;;19.24;44.33
30856;BME280;17570;0.000;0.000;2023-10-13T06:24:46;97489.11;;;19.25;44.40
30856;BME280;17570;0.000;0.000;2023-10-13T06:27:32;97485.17;;;19.29;44.51
30856;BME280;17570;0.000;0.000;2023-10-13T06:30:17;97489.30;;;19.32;44.66
30856;BME280;17570;0.000;0.000;2023-10-13T06:32:45;97501.16;;;19.36;44.79
30856;BME280;17570;0.000;0.000;2023-10-13T06:35:13;97498.50;;;19.52;44.70
30856;BME280;17570;0.000;0.000;2023-10-13T06:37:48;97499.86;;;19.65;44.67
30856;BME280;17570;0.000;0.000;2023-10-13T06:40:16;97505.77;;;19.67;44.73
30856;BME280;17570;0.000;0.000;2023-10-13T06:42:56;97494.56;;;19.81;44.72
30856;BME280;17570;0.000;0.000;2023-10-13T06:45:22;97498.69;;;19.83;44.78
30856;BME280;17570;0.000;0.000;2023-10-13T06:47:51;97495.88;;;19.85;45.01
30856;BME280;17570;0.000;0.000;2023-10-13T06:50:19;97493.41;;;19.92;44.87
30856;BME280;17570;0.000;0.000;2023-10-13T06:52:49;97490.91;;;19.98;44.76
30856;BME280;17570;0.000;0.000;2023-10-13T06:55:16;97497.82;;;19.99;44.74
30856;BME280;17570;0.000;0.000;2023-10-13T06:57:46;97494.19;;;20.00;44.75
30856;BME280;17570;0.000;0.000;2023-10-13T07:00:15;97503.41;;;20.04;45.05
30856;BME280;17570;0.000;0.000;2023-10-13T07:02:56;97500.13;;;20.10;44.73
30856;BME280;17570;0.000;0.000;2023-10-13T07:05:25;97493.67;;;20.13;44.94
30856;BME280;17570;0.000;0.000;2023-10-13T07:07:53;97485.56;;;20.23;44.91
30856;BME280;17570;0.000;0.000;2023-10-13T07:10:22;97482.73;;;20.32;44.52
30856;BME280;17570;0.000;0.000;2023-10-13T07:12:51;97482.89;;;20.39;44.53
30856;BME280;17570;0.000;0.000;2023-10-13T07:15:20;97468.01;;;20.46;44.64
30856;BME280;17570;0.000;0.000;2023-10-13T07:17:49;97470.98;;;20.51;44.64
30856;BME280;17570;0.000;0.000;2023-10-13T07:20:27;97472.95;;;20.57;44.55
30856;BME280;17570;0.000;0.000;2023-10-13T07:22:57;97476.83;;;20.70;44.60
30856;BME280;17570;0.000;0.000;2023-10-13T07:25:26;97470.36;;;20.80;44.40
30856;BME280;17570;0.000;0.000;2023-10-13T07:27:55;97463.67;;;20.93;44.30
30856;BME280;17570;0.000;0.000;2023-10-13T07:30:23;97465.10;;;21.03;43.93
30856;BME280;17570;0.000;0.000;2023-10-13T07:32:52;97469.96;;;21.14;43.59
30856;BME280;17570;0.000;0.000;2023-10-13T07:35:22;97462.67;;;21.17;43.50
30856;BME280;17570;0.000;0.000;2023-10-13T07:37:51;97461.45;;;21.27;44.49
30856;BME280;17570;0.000;0.000;2023-10-13T07:40:21;97451.75;;;21.80;45.76
30856;BME280;17570;0.000;0.000;2023-10-13T07:42:50;97460.63;;;22.32;46.43
30856;BME280;17570;0.000;0.000;2023-10-13T07:45:18;97453.33;;;22.49;45.95
30856;BME280;17570;0.000;0.000;2023-10-13T07:47:53;97451.66;;;22.62;44.69
30856;BME280;17570;0.000;0.000;2023-10-13T07:50:20;97448.52;;;22.74;43.80
30856;BME280;17570;0.000;0.000;2023-10-13T07:52:51;97448.66;;;22.87;43.06
30856;BME280;17570;0.000;0.000;2023-10-13T07:55:27;97447.12;;;22.93;42.81
30856;BME280;17570;0.000;0.000;2023-10-13T07:57:56;97447.48;;;22.89;42.47
30856;BME280;17570;0.000;0.000;2023-10-13T08:00:25;97446.30;;;22.92;43.17
30856;BME280;17570;0.000;0.000;2023-10-13T08:02:58;97444.67;;;22.91;43.26
30856;BME280;17570;0.000;0.000;2023-10-13T08:05:28;97437.73;;;22.90;43.22
30856;BME280;17570;0.000;0.000;2023-10-13T08:08:00;97443.66;;;22.92;42.50
30856;BME280;17570;0.000;0.000;2023-10-13T08:10:35;97437.17;;;22.95;42.62
30856;BME280;17570;0.000;0.000;2023-10-13T08:12:58;97421.14;;;23.03;42.04
30856;BME280;17570;0.000;0.000;2023-10-13T08:15:26;97421.91;;;23.18;41.51
30856;BME280;17570;0.000;0.000;2023-10-13T08:17:59;97428.09;;;23.75;42.65
30856;BME280;17570;0.000;0.000;2023-10-13T08:20:28;97428.53;;;24.19;42.96
30856;BME280;17570;0.000;0.000;2023-10-13T08:22:56;97423.77;;;24.43;42.00
30856;BME280;17570;0.000;0.000;2023-10-13T08:25:26;97420.94;;;24.45;41.60
30856;BME280;17570;0.000;0.000;2023-10-13T08:28:03;97421.23;;;24.28;41.17
30856;BME280;17570;0.000;0.000;2023-10-13T08:30:34;97423.92;;;24.35;40.78
30856;BME280;17570;0.000;0.000;2023-10-13T08:33:04;97427.49;;;24.55;39.30
30856;BME280;17570;0.000;0.000;2023-10-13T08:35:33;97429.77;;;24.65;38.68
30856;BME280;17570;0.000;0.000;2023-10-13T08:38:01;97432.92;;;25.02;40.24
30856;BME280;17570;0.000;0.000;2023-10-13T08:40:30;97435.02;;;25.26;38.28
30856;BME280;17570;0.000;0.000;2023-10-13T08:43:11;97433.39;;;25.45;37.47
30856;BME280;17570;0.000;0.000;2023-10-13T08:45:40;97430.92;;;25.50;36.76
30856;BME280;17570;0.000;0.000;2023-10-13T08:48:13;97431.36;;;25.60;35.08
30856;BME280;17570;0.000;0.000;2023-10-13T08:50:46;97432.97;;;25.75;34.42
30856;BME280;17570;0.000;0.000;2023-10-13T08:53:22;97424.59;;;25.78;33.57
30856;BME280;17570;0.000;0.000;2023-10-13T08:58:31;97430.70;;;25.91;33.22
30856;BME280;17570;0.000;0.000;2023-10-13T09:01:17;97432.53;;;26.04;32.42
30856;BME280;17570;0.000;0.000;2023-10-13T09:04:16;97437.59;;;26.19;33.66
30856;BME280;17570;0.000;0.000;2023-10-13T09:09:29;97431.59;;;26.50;31.01
30856;BME280;17570;0.000;0.000;2023-10-13T09:12:11;97432.34;;;26.64;30.22
30856;BME280;17570;0.000;0.000;2023-10-13T09:14:40;97423.25;;;26.78;29.91
30856;BME280;17570;0.000;0.000;2023-10-13T09:17:12;97420.94;;;26.88;30.77
30856;BME280;17570;0.000;0.000;2023-10-13T09:19:51;97426.41;;;27.00;30.51
30856;BME280;17570;0.000;0.000;2023-10-13T09:22:28;97423.66;;;27.13;30.54
30856;BME280;17570;0.000;0.000;2023-10-13T09:25:02;97425.25;;;27.21;30.75
30856;BME280;17570;0.000;0.000;2023-10-13T09:27:32;97421.88;;;27.32;31.65
30856;BME280;17570;0.000;0.000;2023-10-13T09:30:02;97414.97;;;27.50;31.55
30856;BME280;17570;0.000;0.000;2023-10-13T09:32:37;97415.09;;;27.61;31.16
30856;BME280;17570;0.000;0.000;2023-10-13T09:35:18;97417.67;;;27.75;31.25
30856;BME280;17570;0.000;0.000;2023-10-13T09:37:46;97416.23;;;27.72;26.58
30856;BME280;17570;0.000;0.000;2023-10-13T09:41:36;97415.30;;;27.03;25.25
30856;BME280;17570;0.000;0.000;2023-10-13T09:44:04;97406.20;;;26.41;26.54
30856;BME280;17570;0.000;0.000;2023-10-13T09:46:33;97400.03;;;27.24;28.97
30856;BME280;17570;0.000;0.000;2023-10-13T09:49:11;97401.25;;;27.71;29.65
30856;BME280;17570;0.000;0.000;2023-10-13T09:51:33;97398.11;;;27.99;30.21
30856;BME280;17570;0.000;0.000;2023-10-13T09:54:03;97396.83;;;28.20;30.40
30856;BME280;17570;0.000;0.000;2023-10-13T09:56:32;97397.45;;;28.40;30.23
30856;BME280;17570;0.000;0.000;2023-10-13T09:59:02;97400.09;;;28.59;30.29
30856;BME280;17570;0.000;0.000;2023-10-13T10:01:37;97398.19;;;28.78;30.02
30856;BME280;17570;0.000;0.000;2023-10-13T10:04:10;97399.18;;;28.95;30.21
30856;BME280;17570;0.000;0.000;2023-10-13T10:06:55;97399.92;;;29.14;29.86
30856;BME280;17570;0.000;0.000;2023-10-13T10:09:26;97395.78;;;29.30;29.93
30856;BME280;17570;0.000;0.000;2023-10-13T10:17:29;97393.50;;;29.80;29.82
30856;BME280;17570;0.000;0.000;2023-10-13T10:19:59;97390.55;;;29.93;29.75
30856;BME280;17570;0.000;0.000;2023-10-13T10:22:31;97387.85;;;30.17;29.37
30856;BME280;17570;0.000;0.000;2023-10-13T10:25:07;97382.11;;;30.37;29.28
30856;BME280;17570;0.000;0.000;2023-10-13T10:27:36;97380.53;;;30.53;29.18
30856;BME280;17570;0.000;0.000;2023-10-13T10:30:04;97373.35;;;30.70;28.83
30856;BME280;17570;0.000;0.000;2023-10-13T10:32:34;97376.91;;;30.87;28.07
30856;BME280;17570;0.000;0.000;2023-10-13T10:35:05;97374.62;;;30.96;27.83
30856;BME280;17570;0.000;0.000;2023-10-13T10:37:33;97370.02;;;31.08;27.69
30856;BME280;17570;0.000;0.000;2023-10-13T10:40:03;97378.22;;;31.18;27.74
30856;BME280;17570;0.000;0.000;2023-10-13T10:42:32;97372.02;;;31.30;27.53
30856;BME280;17570;0.000;0.000;2023-10-13T10:44:59;97369.55;;;31.45;27.35
30856;BME280;17570;0.000;0.000;2023-10-13T10:47:34;97372.52;;;31.65;27.08
30856;BME280;17570;0.000;0.000;2023-10-13T10:50:06;97372.53;;;31.82;26.66
30856;BME280;17570;0.000;0.000;2023-10-13T10:52:41;97373.91;;;32.07;26.29
30856;BME280;17570;0.000;0.000;2023-10-13T10:55:09;97380.36;;;32.28;25.83
30856;BME280;17570;0.000;0.000;2023-10-13T10:57:38;97367.72;;;32.50;25.56
30856;BME280;17570;0.000;0.000;2023-10-13T11:00:17;97373.28;;;32.65;25.05
30856;BME280;17570;0.000;0.000;2023-10-13T11:02:38;97368.04;;;32.81;26.07
30856;BME280;17570;0.000;0.000;2023-10-13T11:05:06;97369.54;;;32.93;25.37
30856;BME280;17570;0.000;0.000;2023-10-13T11:07:35;97369.36;;;33.05;24.87
30856;BME280;17570;0.000;0.000;2023-10-13T11:10:09;97367.59;;;33.16;24.94
30856;BME280;17570;0.000;0.000;2023-10-13T11:12:41;97361.50;;;33.31;25.04
30856;BME280;17570;0.000;0.000;2023-10-13T11:15:10;97359.45;;;33.43;25.12
30856;BME280;17570;0.000;0.000;2023-10-13T11:17:50;97362.83;;;33.65;25.07
30856;BME280;17570;0.000;0.000;2023-10-13T11:20:20;97361.85;;;33.82;24.95
30856;BME280;17570;0.000;0.000;2023-10-13T11:22:55;97357.16;;;34.09;24.75
30856;BME280;17570;0.000;0.000;2023-10-13T11:25:24;97363.73;;;34.39;24.62
30856;BME280;17570;0.000;0.000;2023-10-13T11:27:53;97361.67;;;34.71;24.67
30856;BME280;17570;0.000;0.000;2023-10-13T11:30:28;97362.27;;;35.04;24.12
30856;BME280;17570;0.000;0.000;2023-10-13T11:33:05;97364.42;;;35.33;23.79
30856;BME280;17570;0.000;0.000;2023-10-13T11:35:38;97353.61;;;35.63;23.40
30856;BME280;17570;0.000;0.000;2023-10-13T11:38:26;97344.34;;;35.95;22.93
30856;BME280;17570;0.000;0.000;2023-10-13T11:54:33;97350.39;;;33.54;25.49
30856;BME280;17570;0.000;0.000;2023-10-13T11:57:02;97334.70;;;34.92;24.47
30856;BME280;17570;0.000;0.000;2023-10-13T14:12:13;97314.82;;;33.52;18.72
30856;BME280;17570;0.000;0.000;2023-10-13T14:14:54;97306.88;;;34.50;17.84
30856;BME280;17570;0.000;0.000;2023-10-13T14:17:24;97315.78;;;35.68;16.77
30856;BME280;17570;0.000;0.000;2023-10-13T14:19:54;97317.50;;;36.19;16.26
30856;BME280;17570;0.000;0.000;2023-10-13T14:22:21;97319.05;;;36.30;16.41
30856;BME280;17570;0.000;0.000;2023-10-13T14:24:51;97316.66;;;36.18;16.58
30856;BME280;17570;0.000;0.000;2023-10-13T14:27:20;97318.95;;;35.96;16.90
30856;BME280;17570;0.000;0.000;2023-10-13T14:29:49;97324.38;;;35.75;17.47
30856;BME280;17570;0.000;0.000;2023-10-13T14:32:20;97323.08;;;35.58;17.43
30856;BME280;17570;0.000;0.000;2023-10-13T14:34:49;97327.41;;;35.38;17.42
30856;BME280;17570;0.000;0.000;2023-10-13T14:37:19;97323.94;;;35.22;17.76
30856;BME280;17570;0.000;0.000;2023-10-13T14:39:49;97325.58;;;35.03;18.08
30856;BME280;17570;0.000;0.000;2023-10-13T14:42:16;97330.92;;;34.88;18.05
30856;BME280;17570;0.000;0.000;2023-10-13T14:44:46;97329.03;;;34.73;18.44
30856;BME280;17570;0.000;0.000;2023-10-13T14:47:15;97328.73;;;34.54;18.74
30856;BME280;17570;0.000;0.000;2023-10-13T14:49:42;97332.71;;;34.41;19.08
30856;BME280;17570;0.000;0.000;2023-10-13T14:52:10;97339.17;;;34.30;19.52
30856;BME280;17570;0.000;0.000;2023-10-13T14:54:37;97332.95;;;34.19;19.39
30856;BME280;17570;0.000;0.000;2023-10-13T14:57:05;97335.01;;;33.97;20.10
30856;BME280;17570;0.000;0.000;2023-10-13T14:59:32;97335.45;;;33.84;20.76
30856;BME280;17570;0.000;0.000;2023-10-13T15:02:01;97339.70;;;33.69;20.73
30856;BME280;17570;0.000;0.000;2023-10-13T15:04:29;97338.03;;;33.58;20.89
30856;BME280;17570;0.000;0.000;2023-10-13T15:07:00;97334.23;;;33.54;21.05
30856;BME280;17570;0.000;0.000;2023-10-13T15:09:30;97339.47;;;33.39;20.88
30856;BME280;17570;0.000;0.000;2023-10-13T15:11:57;97332.44;;;33.33;20.89
30856;BME280;17570;0.000;0.000;2023-10-13T15:14:25;97337.45;;;33.19;21.51
30856;BME280;17570;0.000;0.000;2023-10-13T15:16:52;97342.22;;;33.07;21.55
30856;BME280;17570;0.000;0.000;2023-10-13T15:19:21;97339.99;;;32.98;21.92
30856;BME280;17570;0.000;0.000;2023-10-13T15:21:50;97345.77;;;32.85;22.17
30856;BME280;17570;0.000;0.000;2023-10-13T15:24:19;97348.67;;;32.79;22.62
30856;BME280;17570;0.000;0.000;2023-10-13T15:26:51;97341.87;;;32.71;22.82
30856;BME280;17570;0.000;0.000;2023-10-13T15:29:20;97345.23;;;32.56;23.27
30856;BME280;17570;0.000;0.000;2023-10-13T15:31:50;97346.98;;;32.45;23.49
30856;BME280;17570;0.000;0.000;2023-10-13T15:34:29;97348.41;;;32.31;23.80
30856;BME280;17570;0.000;0.000;2023-10-13T15:36:58;97356.61;;;32.19;24.18
30856;BME280;17570;0.000;0.000;2023-10-13T15:39:26;97360.22;;;32.08;24.51
30856;BME280;17570;0.000;0.000;2023-10-13T15:41:55;97358.48;;;31.97;24.69
30856;BME280;17570;0.000;0.000;2023-10-13T15:44:26;97368.78;;;31.83;25.18
30856;BME280;17570;0.000;0.000;2023-10-13T15:46:57;97370.35;;;31.62;25.58
30856;BME280;17570;0.000;0.000;2023-10-13T15:49:28;97370.11;;;31.47;26.08
30856;BME280;17570;0.000;0.000;2023-10-13T15:51:56;97371.76;;;31.31;26.70
30856;BME280;17570;0.000;0.000;2023-10-13T15:54:24;97378.00;;;31.20;26.83
30856;BME280;17570;0.000;0.000;2023-10-13T15:56:52;97378.79;;;31.04;26.92
30856;BME280;17570;0.000;0.000;2023-10-13T15:59:20;97375.61;;;30.90;27.38
30856;BME280;17570;0.000;0.000;2023-10-13T16:01:49;97377.77;;;30.76;27.30
30856;BME280;17570;0.000;0.000;2023-10-13T16:04:18;97392.96;;;30.59;27.79
30856;BME280;17570;0.000;0.000;2023-10-13T16:06:46;97389.75;;;30.45;28.00
30856;BME280;17570;0.000;0.000;2023-10-13T16:09:16;97385.84;;;30.36;27.88
30856;BME280;17570;0.000;0.000;2023-10-13T16:11:45;97394.37;;;30.21;28.20
30856;BME280;17570;0.000;0.000;2023-10-13T16:14:13;97392.05;;;30.13;28.55